createdAt,value
2023-04-27T00:05:06.969Z,77069.81
2023-04-27T00:12:42.442Z,77071.88
2023-04-27T00:20:18.913Z,77073.91
2023-04-27T00:27:52.856Z,77080.03
2023-04-27T00:35:28.130Z,77078.00
2023-04-27T00:43:02.073Z,77080.03
2023-04-27T00:50:38.914Z,77094.31
2023-04-27T00:58:12.997Z,77098.41
2023-04-27T01:05:48.198Z,77102.50
2023-04-27T01:13:22.533Z,77110.66
2023-04-27T01:20:57.766Z,77116.78
2023-04-27T01:28:33.024Z,77127.00
2023-04-27T01:36:07.503Z,77143.31
2023-04-27T01:43:43.983Z,77159.66
2023-04-27T01:51:17.948Z,77171.91
2023-04-27T01:58:53.972Z,77175.97
2023-04-27T02:06:28.250Z,77178.03
2023-04-27T02:14:03.433Z,77192.31
2023-04-27T02:21:37.315Z,77202.53
2023-04-27T02:37:04.235Z,77218.88
2023-04-27T02:44:39.400Z,77218.88
2023-04-27T02:52:13.852Z,77222.94
2023-04-27T02:59:48.988Z,77222.94
2023-04-27T03:15:16.324Z,77231.13
2023-04-27T03:22:50.658Z,77251.53
2023-04-27T03:30:25.932Z,77249.50
2023-04-27T03:38:00.094Z,77271.94
2023-04-27T03:45:35.653Z,77280.09
2023-04-27T03:53:10.047Z,77296.44
2023-04-27T04:00:45.596Z,77294.41
2023-04-27T04:08:19.533Z,77310.72
2023-04-27T04:16:03.837Z,77316.84
2023-04-27T04:23:38.393Z,77322.97
2023-04-27T04:31:17.152Z,77312.78
2023-04-27T04:38:52.582Z,77320.94
2023-04-27T04:46:28.590Z,77316.84
2023-04-27T04:54:02.464Z,77308.69
2023-04-27T05:01:38.103Z,77310.72
2023-04-27T05:09:12.325Z,77318.91
2023-04-27T05:16:49.283Z,77312.78
2023-04-27T05:24:23.138Z,77308.69
2023-04-27T05:31:58.646Z,77300.53
2023-04-27T05:39:33.082Z,77298.47
2023-04-27T05:47:08.687Z,77294.41
2023-04-27T05:54:47.956Z,77306.66
2023-04-27T06:02:26.416Z,77308.69
2023-04-27T06:10:00.543Z,77288.28
2023-04-27T06:17:35.960Z,77269.91
2023-04-27T06:25:10.360Z,77261.72
2023-04-27T06:32:46.059Z,77276.03
2023-04-27T06:40:20.309Z,77273.97
2023-04-27T06:47:55.633Z,77253.56
2023-04-27T06:55:29.611Z,77249.50
2023-04-27T07:03:05.247Z,77233.16
2023-04-27T07:10:39.640Z,77198.44
2023-04-27T07:18:15.079Z,77208.66
2023-04-27T07:25:49.262Z,77200.50
2023-04-27T07:33:24.583Z,77171.91
2023-04-27T07:40:59.538Z,77175.97
2023-04-27T07:48:34.998Z,77180.06
2023-04-27T07:56:10.153Z,77135.16
2023-04-27T08:03:45.877Z,77143.31
2023-04-27T08:11:20.478Z,77116.78
2023-04-27T08:18:57.477Z,77061.66
2023-04-27T08:34:25.910Z,77096.38
2023-04-27T08:41:59.944Z,77110.66
2023-04-27T08:49:35.358Z,77082.06
2023-04-27T08:57:12.944Z,77037.16
2023-04-27T09:04:49.002Z,77047.38
2023-04-27T09:12:23.682Z,76951.41
2023-04-27T09:20:11.033Z,76998.38
2023-04-27T09:27:45.511Z,77016.75
2023-04-27T09:35:24.785Z,77059.63
2023-04-27T09:43:01.187Z,77082.06
2023-04-27T09:50:38.688Z,77059.63
2023-04-27T09:58:42.453Z,77026.97
2023-04-27T10:07:01.720Z,77037.16
2023-04-27T10:14:35.987Z,77020.84
2023-04-27T10:22:11.479Z,76967.75
2023-04-27T10:37:44.742Z,76841.19
2023-04-27T10:45:31.175Z,76841.19
2023-04-27T10:53:08.789Z,76879.97
2023-04-27T11:00:45.008Z,76886.09
2023-04-27T11:08:21.714Z,76869.75
2023-04-27T11:15:57.995Z,76822.81
2023-04-27T11:23:37.190Z,76812.59
2023-04-27T11:31:12.942Z,76812.59
2023-04-27T11:46:41.836Z,76818.72
2023-04-27T11:54:17.705Z,76828.94
2023-04-27T12:01:52.887Z,76814.66
2023-04-27T12:09:28.992Z,76804.44
2023-04-27T12:17:02.939Z,76798.31
2023-04-27T12:24:38.447Z,76792.19
2023-04-27T12:32:12.697Z,76722.78
2023-04-27T12:39:48.133Z,76769.72
2023-04-27T12:55:01.548Z,76757.50
2023-04-27T13:02:35.942Z,76749.31
2023-04-27T13:10:12.435Z,76747.28
2023-04-27T13:17:46.644Z,76739.13
2023-04-27T13:25:21.983Z,76698.28
2023-04-27T13:33:07.192Z,76690.13
2023-04-27T13:40:49.912Z,76698.28
2023-04-27T13:48:24.206Z,76673.78
2023-04-27T13:56:01.392Z,76651.34
2023-04-27T14:03:35.990Z,76661.53
2023-04-27T14:11:13.147Z,76679.91
2023-04-27T14:18:47.156Z,76694.22
2023-04-27T14:26:22.928Z,76600.31
2023-04-27T14:33:58.458Z,76553.34
2023-04-27T14:41:34.487Z,76535.00
2023-04-27T14:49:08.530Z,76516.63
2023-04-27T14:56:43.670Z,76467.63
2023-04-27T15:04:17.492Z,76498.25
2023-04-27T15:11:52.902Z,76451.31
2023-04-27T15:19:26.832Z,76461.50
2023-04-27T15:27:03.601Z,76343.13
2023-04-27T15:34:37.536Z,76285.97
2023-04-27T15:42:13.008Z,76310.47
2023-04-27T15:49:56.656Z,76285.97
2023-04-27T15:57:33.161Z,76281.88
2023-04-27T16:05:09.975Z,76271.69
2023-04-27T16:12:45.291Z,76275.75
2023-04-27T16:20:19.503Z,76245.16
2023-04-27T16:27:54.833Z,76292.09
2023-04-27T16:35:30.235Z,76341.09
2023-04-27T16:43:06.328Z,76390.06
2023-04-27T16:50:41.702Z,76381.91
2023-04-27T16:58:17.086Z,76410.47
2023-04-27T17:05:51.273Z,76445.19
2023-04-27T17:13:26.860Z,76492.13
2023-04-27T17:21:00.947Z,76510.50
2023-04-27T17:28:39.965Z,76551.31
2023-04-27T17:36:15.134Z,76567.66
2023-04-27T17:43:50.418Z,76577.84
2023-04-27T17:51:24.669Z,76604.38
2023-04-27T17:58:59.949Z,76635.00
2023-04-27T18:06:34.392Z,76649.28
2023-04-27T18:14:09.640Z,76673.78
2023-04-27T18:21:43.739Z,76716.66
2023-04-27T18:29:19.472Z,76745.25
2023-04-27T18:36:53.435Z,76775.84
2023-04-27T18:44:28.805Z,76810.56
2023-04-27T18:59:56.241Z,76877.94
2023-04-27T19:07:30.520Z,76894.25
2023-04-27T19:15:06.860Z,76935.09
2023-04-27T19:30:34.443Z,76977.97
2023-04-27T19:38:08.678Z,77004.50
2023-04-27T19:53:36.302Z,77049.41
2023-04-27T20:01:13.048Z,77069.81
2023-04-27T20:08:47.769Z,77098.41
2023-04-27T20:16:25.728Z,77131.06
2023-04-27T20:23:59.803Z,77143.31
2023-04-27T20:31:35.135Z,77163.75
2023-04-27T20:39:09.227Z,77175.97
2023-04-27T20:54:36.719Z,77206.63
2023-04-27T21:02:12.227Z,77216.81
2023-04-27T21:09:46.216Z,77227.03
2023-04-27T21:17:21.726Z,77235.19
2023-04-27T21:24:55.614Z,77247.44
2023-04-27T21:32:31.099Z,77265.81
2023-04-27T21:40:06.484Z,77276.03
2023-04-27T21:47:41.973Z,77286.22
2023-04-27T21:55:16.309Z,77308.69
2023-04-27T22:02:51.767Z,77318.91
2023-04-27T22:10:26.233Z,77333.19
2023-04-27T22:18:02.349Z,77341.34
2023-04-27T22:25:36.742Z,77361.78
2023-04-27T22:41:03.730Z,77390.34
2023-04-27T22:48:39.042Z,77400.56
2023-04-27T22:56:13.411Z,77410.78
2023-04-27T23:03:48.921Z,77420.97
2023-04-27T23:11:24.109Z,77429.16
2023-04-27T23:18:59.759Z,77431.19
2023-04-27T23:34:26.366Z,77437.31
2023-04-27T23:42:00.457Z,77433.25
2023-04-27T23:49:36.592Z,77431.19
2023-04-27T23:57:10.557Z,77451.63
